sensor_id;sensor_type;location;lat;lon;timestamp;P1;durP1;ratioP1;P2;durP2;ratioP2
14294;SDS011;7231;59.370;18.016;2023-01-26T00:01:25;6.78;;;3.55;;
14294;SDS011;7231;59.370;18.016;2023-01-26T00:03:54;6.65;;;5.30;;
14294;SDS011;7231;59.370;18.016;2023-01-26T00:06:23;8.40;;;5.88;;
14294;SDS011;7231;59.370;18.016;2023-01-26T00:08:52;9.00;;;5.80;;
14294;SDS011;7231;59.370;18.016;2023-01-26T00:11:22;10.93;;;5.97;;
14294;SDS011;7231;59.370;18.016;2023-01-26T00:13:52;8.90;;;5.75;;
14294;SDS011;7231;59.370;18.016;2023-01-26T00:16:22;8.50;;;5.70;;
14294;SDS011;7231;59.370;18.016;2023-01-26T00:18:50;8.07;;;6.22;;
14294;SDS011;7231;59.370;18.016;2023-01-26T00:21:19;10.45;;;6.18;;
14294;SDS011;7231;59.370;18.016;2023-01-26T00:23:49;7.93;;;4.75;;
14294;SDS011;7231;59.370;18.016;2023-01-26T00:26:18;8.15;;;6.13;;
14294;SDS011;7231;59.370;18.016;2023-01-26T00:28:48;7.53;;;4.75;;
14294;SDS011;7231;59.370;18.016;2023-01-26T00:31:16;11.70;;;6.25;;
14294;SDS011;7231;59.370;18.016;2023-01-26T00:33:49;8.52;;;5.85;;
14294;SDS011;7231;59.370;18.016;2023-01-26T00:36:17;8.38;;;5.60;;
14294;SDS011;7231;59.370;18.016;2023-01-26T00:38:45;10.60;;;6.68;;
14294;SDS011;7231;59.370;18.016;2023-01-26T00:41:13;8.77;;;6.30;;
14294;SDS011;7231;59.370;18.016;2023-01-26T00:43:55;10.65;;;6.50;;
14294;SDS011;7231;59.370;18.016;2023-01-26T00:46:23;10.52;;;6.20;;
14294;SDS011;7231;59.370;18.016;2023-01-26T00:48:52;7.20;;;5.13;;
14294;SDS011;7231;59.370;18.016;2023-01-26T00:51:20;9.57;;;6.45;;
14294;SDS011;7231;59.370;18.016;2023-01-26T00:53:49;13.55;;;7.10;;
14294;SDS011;7231;59.370;18.016;2023-01-26T00:56:17;10.05;;;6.10;;
14294;SDS011;7231;59.370;18.016;2023-01-26T00:58:45;12.57;;;7.20;;
14294;SDS011;7231;59.370;18.016;2023-01-26T01:01:13;13.80;;;7.13;;
14294;SDS011;7231;59.370;18.016;2023-01-26T01:03:41;10.90;;;6.97;;
14294;SDS011;7231;59.370;18.016;2023-01-26T01:06:10;13.50;;;7.63;;
14294;SDS011;7231;59.370;18.016;2023-01-26T01:08:38;14.57;;;7.53;;
14294;SDS011;7231;59.370;18.016;2023-01-26T01:11:06;12.35;;;7.90;;
14294;SDS011;7231;59.370;18.016;2023-01-26T01:13:36;12.63;;;7.30;;
14294;SDS011;7231;59.370;18.016;2023-01-26T01:16:05;11.90;;;7.05;;
14294;SDS011;7231;59.370;18.016;2023-01-26T01:18:33;13.05;;;6.95;;
14294;SDS011;7231;59.370;18.016;2023-01-26T01:21:04;12.88;;;7.82;;
14294;SDS011;7231;59.370;18.016;2023-01-26T01:23:34;14.68;;;8.00;;
14294;SDS011;7231;59.370;18.016;2023-01-26T01:26:02;13.35;;;8.15;;
14294;SDS011;7231;59.370;18.016;2023-01-26T01:28:31;12.80;;;7.47;;
14294;SDS011;7231;59.370;18.016;2023-01-26T01:31:02;12.63;;;7.63;;
14294;SDS011;7231;59.370;18.016;2023-01-26T01:33:31;14.02;;;8.30;;
14294;SDS011;7231;59.370;18.016;2023-01-26T01:35:59;15.57;;;7.85;;
14294;SDS011;7231;59.370;18.016;2023-01-26T01:38:28;13.63;;;8.13;;
14294;SDS011;7231;59.370;18.016;2023-01-26T01:40:58;14.00;;;7.90;;
14294;SDS011;7231;59.370;18.016;2023-01-26T01:43:26;11.63;;;7.93;;
14294;SDS011;7231;59.370;18.016;2023-01-26T01:45:55;14.43;;;8.07;;
14294;SDS011;7231;59.370;18.016;2023-01-26T01:48:26;16.40;;;7.95;;
14294;SDS011;7231;59.370;18.016;2023-01-26T01:50:58;14.63;;;8.07;;
14294;SDS011;7231;59.370;18.016;2023-01-26T01:53:32;14.48;;;8.20;;
14294;SDS011;7231;59.370;18.016;2023-01-26T01:56:06;15.23;;;8.50;;
14294;SDS011;7231;59.370;18.016;2023-01-26T01:58:38;16.45;;;8.63;;
14294;SDS011;7231;59.370;18.016;2023-01-26T02:01:09;17.63;;;7.97;;
14294;SDS011;7231;59.370;18.016;2023-01-26T02:03:38;15.23;;;8.98;;
14294;SDS011;7231;59.370;18.016;2023-01-26T02:06:09;15.60;;;8.27;;
14294;SDS011;7231;59.370;18.016;2023-01-26T02:08:42;9.65;;;6.28;;
14294;SDS011;7231;59.370;18.016;2023-01-26T02:11:15;16.75;;;8.95;;
14294;SDS011;7231;59.370;18.016;2023-01-26T02:13:46;17.80;;;9.30;;
14294;SDS011;7231;59.370;18.016;2023-01-26T02:16:15;16.50;;;9.10;;
14294;SDS011;7231;59.370;18.016;2023-01-26T02:18:44;16.45;;;9.25;;
14294;SDS011;7231;59.370;18.016;2023-01-26T02:21:14;17.50;;;9.15;;
14294;SDS011;7231;59.370;18.016;2023-01-26T02:23:53;17.83;;;9.40;;
14294;SDS011;7231;59.370;18.016;2023-01-26T02:26:30;18.40;;;9.23;;
14294;SDS011;7231;59.370;18.016;2023-01-26T02:29:00;17.45;;;9.07;;
14294;SDS011;7231;59.370;18.016;2023-01-26T02:31:31;16.05;;;8.98;;
14294;SDS011;7231;59.370;18.016;2023-01-26T02:33:59;18.83;;;9.43;;
14294;SDS011;7231;59.370;18.016;2023-01-26T02:36:28;18.63;;;8.73;;
14294;SDS011;7231;59.370;18.016;2023-01-26T02:39:00;15.13;;;8.75;;
14294;SDS011;7231;59.370;18.016;2023-01-26T02:41:43;15.75;;;8.48;;
14294;SDS011;7231;59.370;18.016;2023-01-26T02:44:30;16.55;;;8.82;;
14294;SDS011;7231;59.370;18.016;2023-01-26T02:46:59;18.17;;;8.45;;
14294;SDS011;7231;59.370;18.016;2023-01-26T02:49:27;17.23;;;8.38;;
14294;SDS011;7231;59.370;18.016;2023-01-26T02:52:13;18.85;;;9.35;;
14294;SDS011;7231;59.370;18.016;2023-01-26T02:54:41;14.82;;;8.63;;
14294;SDS011;7231;59.370;18.016;2023-01-26T02:57:28;17.83;;;8.57;;
14294;SDS011;7231;59.370;18.016;2023-01-26T02:59:56;17.42;;;8.70;;
14294;SDS011;7231;59.370;18.016;2023-01-26T03:02:24;18.08;;;8.27;;
14294;SDS011;7231;59.370;18.016;2023-01-26T03:04:52;18.83;;;9.02;;
14294;SDS011;7231;59.370;18.016;2023-01-26T03:07:20;18.83;;;9.10;;
14294;SDS011;7231;59.370;18.016;2023-01-26T03:09:48;19.92;;;9.40;;
14294;SDS011;7231;59.370;18.016;2023-01-26T03:12:16;26.13;;;9.63;;
14294;SDS011;7231;59.370;18.016;2023-01-26T03:14:45;23.83;;;9.65;;
14294;SDS011;7231;59.370;18.016;2023-01-26T03:17:33;27.25;;;10.43;;
14294;SDS011;7231;59.370;18.016;2023-01-26T03:20:01;21.92;;;9.27;;
14294;SDS011;7231;59.370;18.016;2023-01-26T03:22:48;23.40;;;10.18;;
14294;SDS011;7231;59.370;18.016;2023-01-26T03:25:33;21.42;;;9.38;;
14294;SDS011;7231;59.370;18.016;2023-01-26T03:28:20;25.23;;;10.10;;
14294;SDS011;7231;59.370;18.016;2023-01-26T03:30:50;25.23;;;9.65;;
14294;SDS011;7231;59.370;18.016;2023-01-26T03:33:19;26.98;;;10.52;;
14294;SDS011;7231;59.370;18.016;2023-01-26T03:35:50;24.20;;;10.45;;
14294;SDS011;7231;59.370;18.016;2023-01-26T03:38:19;25.02;;;11.10;;
14294;SDS011;7231;59.370;18.016;2023-01-26T03:40:47;24.88;;;9.80;;
14294;SDS011;7231;59.370;18.016;2023-01-26T03:43:33;26.17;;;10.02;;
14294;SDS011;7231;59.370;18.016;2023-01-26T03:46:20;24.75;;;9.18;;
14294;SDS011;7231;59.370;18.016;2023-01-26T03:49:05;25.75;;;10.88;;
14294;SDS011;7231;59.370;18.016;2023-01-26T03:51:50;27.35;;;10.63;;
14294;SDS011;7231;59.370;18.016;2023-01-26T03:54:36;23.00;;;9.88;;
14294;SDS011;7231;59.370;18.016;2023-01-26T03:57:21;20.40;;;8.98;;
14294;SDS011;7231;59.370;18.016;2023-01-26T03:59:49;24.25;;;9.10;;
14294;SDS011;7231;59.370;18.016;2023-01-26T04:02:18;22.70;;;9.40;;
14294;SDS011;7231;59.370;18.016;2023-01-26T04:05:04;22.33;;;10.15;;
14294;SDS011;7231;59.370;18.016;2023-01-26T04:07:50;22.55;;;9.00;;
14294;SDS011;7231;59.370;18.016;2023-01-26T04:10:35;21.23;;;9.25;;
14294;SDS011;7231;59.370;18.016;2023-01-26T04:13:03;22.67;;;9.75;;
14294;SDS011;7231;59.370;18.016;2023-01-26T04:15:49;20.42;;;9.20;;
14294;SDS011;7231;59.370;18.016;2023-01-26T04:18:36;21.38;;;9.73;;
14294;SDS011;7231;59.370;18.016;2023-01-26T04:21:21;26.10;;;9.45;;
14294;SDS011;7231;59.370;18.016;2023-01-26T04:23:57;22.55;;;9.35;;
14294;SDS011;7231;59.370;18.016;2023-01-26T04:26:27;23.88;;;10.20;;
14294;SDS011;7231;59.370;18.016;2023-01-26T04:29:00;24.63;;;10.40;;
14294;SDS011;7231;59.370;18.016;2023-01-26T04:31:28;22.65;;;9.32;;
14294;SDS011;7231;59.370;18.016;2023-01-26T04:33:58;23.30;;;9.30;;
14294;SDS011;7231;59.370;18.016;2023-01-26T04:36:26;25.42;;;10.15;;
14294;SDS011;7231;59.370;18.016;2023-01-26T04:38:54;24.75;;;10.55;;
14294;SDS011;7231;59.370;18.016;2023-01-26T04:41:22;28.00;;;9.93;;
14294;SDS011;7231;59.370;18.016;2023-01-26T04:43:50;26.77;;;10.45;;
14294;SDS011;7231;59.370;18.016;2023-01-26T04:46:18;23.52;;;9.93;;
14294;SDS011;7231;59.370;18.016;2023-01-26T04:48:47;24.55;;;9.25;;
14294;SDS011;7231;59.370;18.016;2023-01-26T04:51:18;23.58;;;9.80;;
14294;SDS011;7231;59.370;18.016;2023-01-26T04:53:48;22.90;;;9.70;;
14294;SDS011;7231;59.370;18.016;2023-01-26T04:56:18;27.00;;;10.45;;
14294;SDS011;7231;59.370;18.016;2023-01-26T04:58:48;24.38;;;10.25;;
14294;SDS011;7231;59.370;18.016;2023-01-26T05:01:16;23.17;;;10.40;;
14294;SDS011;7231;59.370;18.016;2023-01-26T05:03:45;22.80;;;9.90;;
14294;SDS011;7231;59.370;18.016;2023-01-26T05:06:13;23.05;;;9.90;;
14294;SDS011;7231;59.370;18.016;2023-01-26T05:08:43;29.70;;;10.43;;
14294;SDS011;7231;59.370;18.016;2023-01-26T05:11:11;22.08;;;9.68;;
14294;SDS011;7231;59.370;18.016;2023-01-26T05:13:39;23.70;;;10.40;;
14294;SDS011;7231;59.370;18.016;2023-01-26T05:16:07;24.65;;;10.32;;
14294;SDS011;7231;59.370;18.016;2023-01-26T05:18:39;26.92;;;10.93;;
14294;SDS011;7231;59.370;18.016;2023-01-26T05:21:07;23.48;;;9.77;;
14294;SDS011;7231;59.370;18.016;2023-01-26T05:23:37;20.45;;;9.15;;
14294;SDS011;7231;59.370;18.016;2023-01-26T05:26:07;21.33;;;9.88;;
14294;SDS011;7231;59.370;18.016;2023-01-26T05:28:35;21.48;;;9.55;;
14294;SDS011;7231;59.370;18.016;2023-01-26T05:31:03;24.65;;;10.20;;
14294;SDS011;7231;59.370;18.016;2023-01-26T05:33:31;22.17;;;9.77;;
14294;SDS011;7231;59.370;18.016;2023-01-26T05:36:02;25.55;;;10.70;;
14294;SDS011;7231;59.370;18.016;2023-01-26T05:38:31;20.75;;;9.13;;
14294;SDS011;7231;59.370;18.016;2023-01-26T05:41:01;23.90;;;10.40;;
14294;SDS011;7231;59.370;18.016;2023-01-26T05:43:30;20.58;;;9.55;;
14294;SDS011;7231;59.370;18.016;2023-01-26T05:45:58;22.52;;;9.55;;
14294;SDS011;7231;59.370;18.016;2023-01-26T05:48:26;20.45;;;9.35;;
14294;SDS011;7231;59.370;18.016;2023-01-26T05:50:54;22.02;;;11.32;;
14294;SDS011;7231;59.370;18.016;2023-01-26T05:53:23;21.75;;;10.45;;
14294;SDS011;7231;59.370;18.016;2023-01-26T05:55:51;22.08;;;10.38;;
14294;SDS011;7231;59.370;18.016;2023-01-26T05:58:19;20.95;;;8.85;;
14294;SDS011;7231;59.370;18.016;2023-01-26T06:00:48;20.30;;;9.32;;
14294;SDS011;7231;59.370;18.016;2023-01-26T06:03:16;21.83;;;9.18;;
14294;SDS011;7231;59.370;18.016;2023-01-26T06:05:50;21.85;;;9.32;;
14294;SDS011;7231;59.370;18.016;2023-01-26T06:08:19;19.42;;;9.13;;
14294;SDS011;7231;59.370;18.016;2023-01-26T06:10:47;16.20;;;8.02;;
14294;SDS011;7231;59.370;18.016;2023-01-26T06:13:15;19.15;;;8.68;;
14294;SDS011;7231;59.370;18.016;2023-01-26T06:15:43;20.58;;;8.73;;
14294;SDS011;7231;59.370;18.016;2023-01-26T06:18:12;20.50;;;8.90;;
14294;SDS011;7231;59.370;18.016;2023-01-26T06:20:40;19.88;;;8.98;;
14294;SDS011;7231;59.370;18.016;2023-01-26T06:23:09;17.63;;;8.02;;
14294;SDS011;7231;59.370;18.016;2023-01-26T06:25:38;15.93;;;7.50;;
14294;SDS011;7231;59.370;18.016;2023-01-26T06:28:06;16.00;;;8.23;;
14294;SDS011;7231;59.370;18.016;2023-01-26T06:30:34;16.42;;;7.75;;
14294;SDS011;7231;59.370;18.016;2023-01-26T06:33:02;16.75;;;8.07;;
14294;SDS011;7231;59.370;18.016;2023-01-26T06:35:33;18.17;;;7.47;;
14294;SDS011;7231;59.370;18.016;2023-01-26T06:38:02;15.32;;;7.10;;
14294;SDS011;7231;59.370;18.016;2023-01-26T06:40:30;12.52;;;6.90;;
14294;SDS011;7231;59.370;18.016;2023-01-26T06:42:58;14.20;;;7.47;;
14294;SDS011;7231;59.370;18.016;2023-01-26T06:45:26;14.85;;;6.78;;
14294;SDS011;7231;59.370;18.016;2023-01-26T06:47:54;11.95;;;6.55;;
14294;SDS011;7231;59.370;18.016;2023-01-26T06:50:24;11.80;;;6.18;;
14294;SDS011;7231;59.370;18.016;2023-01-26T06:52:59;12.70;;;5.75;;
14294;SDS011;7231;59.370;18.016;2023-01-26T06:55:31;12.32;;;6.15;;
14294;SDS011;7231;59.370;18.016;2023-01-26T06:58:02;16.20;;;5.70;;
14294;SDS011;7231;59.370;18.016;2023-01-26T07:00:30;14.73;;;5.80;;
14294;SDS011;7231;59.370;18.016;2023-01-26T07:02:58;14.52;;;6.05;;
14294;SDS011;7231;59.370;18.016;2023-01-26T07:05:26;12.82;;;5.93;;
14294;SDS011;7231;59.370;18.016;2023-01-26T07:07:54;11.48;;;5.65;;
14294;SDS011;7231;59.370;18.016;2023-01-26T07:10:23;13.68;;;5.68;;
14294;SDS011;7231;59.370;18.016;2023-01-26T07:12:51;10.48;;;4.93;;
14294;SDS011;7231;59.370;18.016;2023-01-26T07:15:19;10.13;;;4.95;;
14294;SDS011;7231;59.370;18.016;2023-01-26T07:17:47;8.52;;;4.60;;
14294;SDS011;7231;59.370;18.016;2023-01-26T07:20:15;10.48;;;4.28;;
14294;SDS011;7231;59.370;18.016;2023-01-26T07:22:43;10.00;;;4.28;;
14294;SDS011;7231;59.370;18.016;2023-01-26T07:25:11;8.05;;;3.58;;
14294;SDS011;7231;59.370;18.016;2023-01-26T07:27:40;7.18;;;3.25;;
14294;SDS011;7231;59.370;18.016;2023-01-26T07:30:10;7.13;;;2.65;;
14294;SDS011;7231;59.370;18.016;2023-01-26T07:32:40;7.15;;;3.05;;
14294;SDS011;7231;59.370;18.016;2023-01-26T07:35:08;7.65;;;3.10;;
14294;SDS011;7231;59.370;18.016;2023-01-26T07:37:35;6.43;;;2.88;;
14294;SDS011;7231;59.370;18.016;2023-01-26T07:40:04;4.03;;;2.40;;
14294;SDS011;7231;59.370;18.016;2023-01-26T07:42:32;7.75;;;2.80;;
14294;SDS011;7231;59.370;18.016;2023-01-26T07:45:02;6.38;;;2.10;;
14294;SDS011;7231;59.370;18.016;2023-01-26T07:47:30;4.22;;;1.70;;
14294;SDS011;7231;59.370;18.016;2023-01-26T07:49:58;3.95;;;1.85;;
14294;SDS011;7231;59.370;18.016;2023-01-26T07:52:26;3.97;;;1.88;;
14294;SDS011;7231;59.370;18.016;2023-01-26T07:54:54;3.80;;;1.50;;
14294;SDS011;7231;59.370;18.016;2023-01-26T07:57:22;4.78;;;1.90;;
14294;SDS011;7231;59.370;18.016;2023-01-26T07:59:49;3.15;;;1.50;;
14294;SDS011;7231;59.370;18.016;2023-01-26T08:02:19;3.58;;;1.27;;
14294;SDS011;7231;59.370;18.016;2023-01-26T08:04:47;4.80;;;1.75;;
14294;SDS011;7231;59.370;18.016;2023-01-26T08:07:15;3.22;;;1.30;;
14294;SDS011;7231;59.370;18.016;2023-01-26T08:09:44;2.78;;;1.15;;
14294;SDS011;7231;59.370;18.016;2023-01-26T08:12:12;2.80;;;1.10;;
14294;SDS011;7231;59.370;18.016;2023-01-26T08:14:40;1.83;;;0.98;;
14294;SDS011;7231;59.370;18.016;2023-01-26T08:17:12;1.58;;;1.20;;
14294;SDS011;7231;59.370;18.016;2023-01-26T08:19:44;2.25;;;0.90;;
14294;SDS011;7231;59.370;18.016;2023-01-26T08:22:12;1.13;;;0.80;;
14294;SDS011;7231;59.370;18.016;2023-01-26T08:24:41;2.58;;;0.85;;
14294;SDS011;7231;59.370;18.016;2023-01-26T08:27:09;1.60;;;1.00;;
14294;SDS011;7231;59.370;18.016;2023-01-26T08:29:36;1.60;;;0.82;;
14294;SDS011;7231;59.370;18.016;2023-01-26T08:32:05;1.17;;;0.77;;
14294;SDS011;7231;59.370;18.016;2023-01-26T08:34:33;1.85;;;0.68;;
14294;SDS011;7231;59.370;18.016;2023-01-26T08:37:03;1.42;;;0.90;;
14294;SDS011;7231;59.370;18.016;2023-01-26T08:39:31;2.95;;;0.80;;
14294;SDS011;7231;59.370;18.016;2023-01-26T08:41:59;1.27;;;0.68;;
14294;SDS011;7231;59.370;18.016;2023-01-26T08:44:26;1.50;;;0.65;;
14294;SDS011;7231;59.370;18.016;2023-01-26T08:46:54;1.02;;;0.80;;
14294;SDS011;7231;59.370;18.016;2023-01-26T08:49:22;2.22;;;0.90;;
14294;SDS011;7231;59.370;18.016;2023-01-26T08:51:50;3.03;;;0.60;;
14294;SDS011;7231;59.370;18.016;2023-01-26T08:54:19;0.60;;;0.57;;
14294;SDS011;7231;59.370;18.016;2023-01-26T08:56:47;0.98;;;0.57;;
14294;SDS011;7231;59.370;18.016;2023-01-26T08:59:16;2.60;;;0.60;;
14294;SDS011;7231;59.370;18.016;2023-01-26T09:01:44;1.50;;;0.77;;
14294;SDS011;7231;59.370;18.016;2023-01-26T09:04:12;1.20;;;0.50;;
14294;SDS011;7231;59.370;18.016;2023-01-26T09:06:40;1.27;;;0.50;;
14294;SDS011;7231;59.370;18.016;2023-01-26T09:09:08;2.53;;;0.40;;
14294;SDS011;7231;59.370;18.016;2023-01-26T09:11:40;0.55;;;0.55;;
14294;SDS011;7231;59.370;18.016;2023-01-26T09:14:08;1.67;;;0.60;;
14294;SDS011;7231;59.370;18.016;2023-01-26T09:16:35;1.92;;;0.40;;
14294;SDS011;7231;59.370;18.016;2023-01-26T09:19:03;1.45;;;0.63;;
14294;SDS011;7231;59.370;18.016;2023-01-26T09:21:31;0.98;;;0.50;;
14294;SDS011;7231;59.370;18.016;2023-01-26T09:23:59;4.07;;;0.40;;
14294;SDS011;7231;59.370;18.016;2023-01-26T09:26:28;2.35;;;0.50;;
14294;SDS011;7231;59.370;18.016;2023-01-26T09:28:57;1.73;;;0.40;;
14294;SDS011;7231;59.370;18.016;2023-01-26T09:31:25;0.85;;;0.30;;
14294;SDS011;7231;59.370;18.016;2023-01-26T09:33:53;0.47;;;0.40;;
14294;SDS011;7231;59.370;18.016;2023-01-26T09:36:21;0.60;;;0.40;;
14294;SDS011;7231;59.370;18.016;2023-01-26T09:38:49;1.65;;;0.55;;
14294;SDS011;7231;59.370;18.016;2023-01-26T09:41:24;1.08;;;0.50;;
14294;SDS011;7231;59.370;18.016;2023-01-26T09:44:06;0.93;;;0.30;;
14294;SDS011;7231;59.370;18.016;2023-01-26T09:46:39;0.45;;;0.32;;
14294;SDS011;7231;59.370;18.016;2023-01-26T09:49:16;2.03;;;0.35;;
14294;SDS011;7231;59.370;18.016;2023-01-26T09:51:51;1.17;;;0.55;;
14294;SDS011;7231;59.370;18.016;2023-01-26T09:54:28;0.50;;;0.40;;
14294;SDS011;7231;59.370;18.016;2023-01-26T09:57:08;3.20;;;0.60;;
14294;SDS011;7231;59.370;18.016;2023-01-26T09:59:40;1.05;;;0.30;;
14294;SDS011;7231;59.370;18.016;2023-01-26T10:02:17;0.57;;;0.30;;
14294;SDS011;7231;59.370;18.016;2023-01-26T10:04:54;0.45;;;0.25;;
14294;SDS011;7231;59.370;18.016;2023-01-26T10:07:25;0.70;;;0.40;;
14294;SDS011;7231;59.370;18.016;2023-01-26T10:09:53;1.52;;;0.35;;
14294;SDS011;7231;59.370;18.016;2023-01-26T10:12:22;0.73;;;0.30;;
14294;SDS011;7231;59.370;18.016;2023-01-26T10:14:54;0.82;;;0.40;;
14294;SDS011;7231;59.370;18.016;2023-01-26T10:17:30;1.52;;;0.20;;
14294;SDS011;7231;59.370;18.016;2023-01-26T10:20:00;0.82;;;0.60;;
14294;SDS011;7231;59.370;18.016;2023-01-26T10:22:35;1.15;;;0.30;;
14294;SDS011;7231;59.370;18.016;2023-01-26T10:25:13;0.28;;;0.25;;
14294;SDS011;7231;59.370;18.016;2023-01-26T10:27:44;0.77;;;0.20;;
14294;SDS011;7231;59.370;18.016;2023-01-26T10:30:14;0.57;;;0.30;;
14294;SDS011;7231;59.370;18.016;2023-01-26T10:32:44;1.52;;;0.60;;
14294;SDS011;7231;59.370;18.016;2023-01-26T10:35:15;0.20;;;0.20;;
14294;SDS011;7231;59.370;18.016;2023-01-26T10:37:45;0.80;;;0.20;;
14294;SDS011;7231;59.370;18.016;2023-01-26T10:40:14;3.40;;;0.68;;
14294;SDS011;7231;59.370;18.016;2023-01-26T10:42:52;1.13;;;0.40;;
14294;SDS011;7231;59.370;18.016;2023-01-26T10:45:24;2.13;;;0.52;;
14294;SDS011;7231;59.370;18.016;2023-01-26T10:48:02;3.55;;;0.40;;
14294;SDS011;7231;59.370;18.016;2023-01-26T10:50:33;1.27;;;0.32;;
14294;SDS011;7231;59.370;18.016;2023-01-26T10:53:01;2.67;;;0.40;;
14294;SDS011;7231;59.370;18.016;2023-01-26T10:55:31;1.55;;;0.50;;
14294;SDS011;7231;59.370;18.016;2023-01-26T10:58:01;0.40;;;0.30;;
14294;SDS011;7231;59.370;18.016;2023-01-26T11:00:31;0.80;;;0.30;;
14294;SDS011;7231;59.370;18.016;2023-01-26T11:03:03;2.33;;;0.30;;
14294;SDS011;7231;59.370;18.016;2023-01-26T11:05:42;0.60;;;0.30;;
14294;SDS011;7231;59.370;18.016;2023-01-26T11:11:01;0.80;;;0.40;;
14294;SDS011;7231;59.370;18.016;2023-01-26T11:13:29;1.40;;;0.47;;
14294;SDS011;7231;59.370;18.016;2023-01-26T11:16:02;1.02;;;0.50;;
14294;SDS011;7231;59.370;18.016;2023-01-26T11:18:40;2.38;;;0.30;;
14294;SDS011;7231;59.370;18.016;2023-01-26T11:21:12;1.92;;;0.40;;
14294;SDS011;7231;59.370;18.016;2023-01-26T11:29:33;1.75;;;0.40;;
14294;SDS011;7231;59.370;18.016;2023-01-26T11:32:15;1.50;;;0.77;;
14294;SDS011;7231;59.370;18.016;2023-01-26T11:34:54;2.97;;;0.60;;
14294;SDS011;7231;59.370;18.016;2023-01-26T11:37:35;2.72;;;0.30;;
14294;SDS011;7231;59.370;18.016;2023-01-26T11:40:13;2.90;;;0.30;;
14294;SDS011;7231;59.370;18.016;2023-01-26T11:42:53;3.67;;;0.57;;
14294;SDS011;7231;59.370;18.016;2023-01-26T11:45:35;3.85;;;0.40;;
14294;SDS011;7231;59.370;18.016;2023-01-26T11:48:15;3.35;;;0.50;;
14294;SDS011;7231;59.370;18.016;2023-01-26T11:50:52;1.25;;;0.30;;
14294;SDS011;7231;59.370;18.016;2023-01-26T11:53:27;4.78;;;0.90;;
14294;SDS011;7231;59.370;18.016;2023-01-26T11:56:17;3.95;;;0.50;;
14294;SDS011;7231;59.370;18.016;2023-01-26T11:59:00;1.63;;;0.50;;
14294;SDS011;7231;59.370;18.016;2023-01-26T12:01:32;1.65;;;0.50;;
14294;SDS011;7231;59.370;18.016;2023-01-26T12:04:04;3.63;;;0.85;;
14294;SDS011;7231;59.370;18.016;2023-01-26T12:06:35;2.75;;;1.08;;
14294;SDS011;7231;59.370;18.016;2023-01-26T12:09:04;2.05;;;0.38;;
14294;SDS011;7231;59.370;18.016;2023-01-26T12:11:45;1.65;;;0.50;;
14294;SDS011;7231;59.370;18.016;2023-01-26T12:14:20;2.88;;;0.70;;
14294;SDS011;7231;59.370;18.016;2023-01-26T12:19:53;2.40;;;0.47;;
14294;SDS011;7231;59.370;18.016;2023-01-26T12:22:31;5.40;;;0.98;;
14294;SDS011;7231;59.370;18.016;2023-01-26T12:25:06;4.03;;;0.60;;
14294;SDS011;7231;59.370;18.016;2023-01-26T12:27:46;3.05;;;0.60;;
14294;SDS011;7231;59.370;18.016;2023-01-26T12:30:29;3.92;;;0.65;;
14294;SDS011;7231;59.370;18.016;2023-01-26T12:33:03;3.78;;;0.63;;
14294;SDS011;7231;59.370;18.016;2023-01-26T12:35:36;3.40;;;0.57;;
14294;SDS011;7231;59.370;18.016;2023-01-26T12:38:29;3.35;;;0.80;;
14294;SDS011;7231;59.370;18.016;2023-01-26T12:41:09;9.52;;;0.75;;
14294;SDS011;7231;59.370;18.016;2023-01-26T12:43:44;1.83;;;0.73;;
14294;SDS011;7231;59.370;18.016;2023-01-26T12:46:23;2.70;;;0.50;;
14294;SDS011;7231;59.370;18.016;2023-01-26T12:48:56;1.95;;;0.80;;
14294;SDS011;7231;59.370;18.016;2023-01-26T12:51:29;1.92;;;0.80;;
14294;SDS011;7231;59.370;18.016;2023-01-26T12:54:03;1.40;;;0.50;;
14294;SDS011;7231;59.370;18.016;2023-01-26T12:56:39;4.10;;;1.00;;
14294;SDS011;7231;59.370;18.016;2023-01-26T12:59:13;4.53;;;0.70;;
14294;SDS011;7231;59.370;18.016;2023-01-26T13:02:09;3.53;;;0.57;;
14294;SDS011;7231;59.370;18.016;2023-01-26T13:04:46;3.92;;;0.70;;
14294;SDS011;7231;59.370;18.016;2023-01-26T13:07:28;3.13;;;0.80;;
14294;SDS011;7231;59.370;18.016;2023-01-26T13:12:55;6.57;;;0.40;;
14294;SDS011;7231;59.370;18.016;2023-01-26T13:15:26;2.53;;;0.60;;
14294;SDS011;7231;59.370;18.016;2023-01-26T13:17:57;3.25;;;0.77;;
14294;SDS011;7231;59.370;18.016;2023-01-26T13:20:27;3.72;;;0.75;;
14294;SDS011;7231;59.370;18.016;2023-01-26T13:26:15;2.50;;;0.80;;
14294;SDS011;7231;59.370;18.016;2023-01-26T13:28:48;3.55;;;0.50;;
14294;SDS011;7231;59.370;18.016;2023-01-26T13:31:30;4.80;;;0.63;;
14294;SDS011;7231;59.370;18.016;2023-01-26T13:34:01;1.05;;;0.40;;
14294;SDS011;7231;59.370;18.016;2023-01-26T13:36:35;2.33;;;0.60;;
14294;SDS011;7231;59.370;18.016;2023-01-26T13:39:10;2.13;;;0.60;;
14294;SDS011;7231;59.370;18.016;2023-01-26T13:41:48;2.85;;;0.75;;
14294;SDS011;7231;59.370;18.016;2023-01-26T13:44:19;2.83;;;0.45;;
14294;SDS011;7231;59.370;18.016;2023-01-26T13:46:50;2.72;;;0.50;;
14294;SDS011;7231;59.370;18.016;2023-01-26T13:49:25;3.08;;;0.60;;
14294;SDS011;7231;59.370;18.016;2023-01-26T13:52:02;2.95;;;0.75;;
14294;SDS011;7231;59.370;18.016;2023-01-26T13:54:43;3.72;;;0.77;;
14294;SDS011;7231;59.370;18.016;2023-01-26T13:57:18;5.50;;;0.82;;
14294;SDS011;7231;59.370;18.016;2023-01-26T13:59:48;2.88;;;1.02;;
14294;SDS011;7231;59.370;18.016;2023-01-26T14:02:20;4.22;;;1.00;;
14294;SDS011;7231;59.370;18.016;2023-01-26T14:04:50;2.80;;;1.10;;
14294;SDS011;7231;59.370;18.016;2023-01-26T14:07:21;6.68;;;1.02;;
14294;SDS011;7231;59.370;18.016;2023-01-26T14:09:55;3.13;;;0.85;;
14294;SDS011;7231;59.370;18.016;2023-01-26T14:12:28;2.65;;;0.93;;
14294;SDS011;7231;59.370;18.016;2023-01-26T14:15:00;3.35;;;0.80;;
14294;SDS011;7231;59.370;18.016;2023-01-26T14:17:31;6.07;;;1.10;;
14294;SDS011;7231;59.370;18.016;2023-01-26T14:20:15;4.03;;;1.40;;
14294;SDS011;7231;59.370;18.016;2023-01-26T14:23:00;2.85;;;1.20;;
14294;SDS011;7231;59.370;18.016;2023-01-26T14:25:31;4.28;;;0.90;;
14294;SDS011;7231;59.370;18.016;2023-01-26T14:28:00;4.60;;;1.03;;
14294;SDS011;7231;59.370;18.016;2023-01-26T14:30:28;4.13;;;1.27;;
14294;SDS011;7231;59.370;18.016;2023-01-26T14:33:01;6.80;;;1.00;;
14294;SDS011;7231;59.370;18.016;2023-01-26T14:35:31;4.33;;;0.73;;
14294;SDS011;7231;59.370;18.016;2023-01-26T14:38:10;7.10;;;0.90;;
14294;SDS011;7231;59.370;18.016;2023-01-26T14:40:46;4.57;;;0.70;;
14294;SDS011;7231;59.370;18.016;2023-01-26T14:43:15;2.80;;;0.73;;
14294;SDS011;7231;59.370;18.016;2023-01-26T14:45:46;2.57;;;0.73;;
14294;SDS011;7231;59.370;18.016;2023-01-26T14:48:18;2.17;;;0.67;;
14294;SDS011;7231;59.370;18.016;2023-01-26T14:50:51;1.37;;;0.40;;
14294;SDS011;7231;59.370;18.016;2023-01-26T14:53:20;1.37;;;0.50;;
14294;SDS011;7231;59.370;18.016;2023-01-26T14:55:51;3.00;;;1.00;;
14294;SDS011;7231;59.370;18.016;2023-01-26T14:58:20;4.10;;;0.87;;
14294;SDS011;7231;59.370;18.016;2023-01-26T15:00:52;1.53;;;0.47;;
14294;SDS011;7231;59.370;18.016;2023-01-26T15:03:22;2.53;;;0.60;;
14294;SDS011;7231;59.370;18.016;2023-01-26T15:06:02;2.97;;;0.80;;
14294;SDS011;7231;59.370;18.016;2023-01-26T15:08:33;4.40;;;0.53;;
14294;SDS011;7231;59.370;18.016;2023-01-26T15:11:03;4.23;;;0.60;;
14294;SDS011;7231;59.370;18.016;2023-01-26T15:13:51;4.30;;;0.60;;
14294;SDS011;7231;59.370;18.016;2023-01-26T15:16:21;5.57;;;0.60;;
14294;SDS011;7231;59.370;18.016;2023-01-26T15:18:57;3.77;;;0.70;;
14294;SDS011;7231;59.370;18.016;2023-01-26T15:21:28;2.03;;;0.60;;
14294;SDS011;7231;59.370;18.016;2023-01-26T15:23:59;3.77;;;0.87;;
14294;SDS011;7231;59.370;18.016;2023-01-26T15:26:29;3.77;;;0.67;;